Terminal Aerodrome Forecast
Issued by NWS

Home | Current Version | Previous Version | Text Only | Print | Product List | Glossary On
Versions: 1 2 3 4 5 6 7 8 9 10 11 12 13 14 15 16 17 18 19 20 21 22 23 24 25 26 27 28 29 30 31 32 33 34 35 36 37 38 39 40 41 42 43 44 45 46 47 48 49 50
000
FTUS46 KEKA 261901 AAB
TAFACV
TAF AMD
KACV 261901Z 2619/2718 32007KT 2SM BR BKN002 BKN200
      TEMPO 2619/2621 1/2SM FG
     FM262100 30003KT 3SM BR SCT002 BKN006 BKN250
     FM270300 VRB03KT 3SM BR SCT006 BKN015 OVC100=

USA.gov is the U.S. government's official web portal to all federal, state and local government web resources and services.